createdAt,value
2022-08-05T00:00:23.210Z,60.48
2022-08-05T00:02:07.711Z,59.85
2022-08-05T00:03:40.063Z,60.34
2022-08-05T00:06:01.666Z,59.88
2022-08-05T00:07:21.763Z,59.96
2022-08-05T00:08:58.311Z,60.04
2022-08-05T00:10:30.028Z,60.64
2022-08-05T00:12:01.786Z,60.48
2022-08-05T00:13:38.816Z,61.55
2022-08-05T00:15:54.031Z,62.81
2022-08-05T00:17:03.684Z,64.16
2022-08-05T00:18:50.758Z,64.74
2022-08-05T00:20:22.535Z,65.31
2022-08-05T00:22:01.230Z,66.17
2022-08-05T00:23:46.717Z,66.05
2022-08-05T00:25:24.758Z,66.09
2022-08-05T00:26:57.717Z,66.21
2022-08-05T00:28:30.466Z,66.27
2022-08-05T00:30:11.602Z,66.28
2022-08-05T00:31:54.400Z,67.30
2022-08-05T00:34:55.988Z,66.93
2022-08-05T00:35:33.168Z,66.69
2022-08-05T00:37:12.979Z,67.24
2022-08-05T00:38:45.791Z,66.61
2022-08-05T00:40:28.374Z,66.74
2022-08-05T00:42:00.879Z,66.09
2022-08-05T00:43:47.302Z,65.68
2022-08-05T00:45:28.101Z,65.51
2022-08-05T00:47:12.005Z,65.65
2022-08-05T00:48:51.458Z,65.72
2022-08-05T00:50:25.391Z,65.88
2022-08-05T00:51:57.523Z,66.23
2022-08-05T00:53:45.421Z,66.68
2022-08-05T00:55:21.381Z,67.12
2022-08-05T00:56:53.692Z,68.90
2022-08-05T00:58:27.330Z,69.11
2022-08-05T00:59:59.433Z,70.05
2022-08-05T01:01:48.199Z,70.25
2022-08-05T01:03:22.832Z,70.52
2022-08-05T01:04:54.993Z,70.42
2022-08-05T01:06:32.401Z,71.23
2022-08-05T01:08:40.069Z,71.85
2022-08-05T01:09:58.101Z,71.61
2022-08-05T01:11:37.180Z,71.70
2022-08-05T01:13:19.430Z,71.77
2022-08-05T01:15:00.069Z,71.00
2022-08-05T01:16:46.000Z,70.51
2022-08-05T01:18:25.270Z,70.80
2022-08-05T01:20:11.385Z,70.69
2022-08-05T01:22:15.482Z,70.90
2022-08-05T01:24:02.986Z,70.27
2022-08-05T01:26:00.191Z,70.93
2022-08-05T01:28:13.689Z,70.87
2022-08-05T01:29:49.538Z,70.23
2022-08-05T01:31:30.403Z,69.92
2022-08-05T01:33:08.633Z,69.65
2022-08-05T01:34:48.567Z,70.29
2022-08-05T01:36:28.190Z,70.71
2022-08-05T01:38:03.084Z,70.86
2022-08-05T01:39:47.178Z,70.39
2022-08-05T01:41:25.541Z,70.00
2022-08-05T01:43:03.686Z,69.76
2022-08-05T01:44:38.882Z,69.41
2022-08-05T01:46:16.493Z,69.20
2022-08-05T01:48:10.386Z,69.84
2022-08-05T01:50:01.667Z,71.17
2022-08-05T01:51:36.187Z,72.00
2022-08-05T01:53:12.776Z,72.52
2022-08-05T01:54:52.832Z,72.58
2022-08-05T01:58:10.808Z,73.10
2022-08-05T01:58:40.944Z,73.48
2022-08-05T02:00:30.389Z,73.75
2022-08-05T02:02:04.522Z,74.32
2022-08-05T02:03:46.631Z,75.11
2022-08-05T02:05:23.389Z,75.63
2022-08-05T02:06:56.415Z,79.27
2022-08-05T02:08:31.623Z,89.46
2022-08-05T02:10:04.825Z,91.48
2022-08-05T02:11:47.896Z,92.37
2022-08-05T02:13:28.197Z,93.77
2022-08-05T02:15:26.196Z,94.88
2022-08-05T02:17:08.196Z,96.22
2022-08-05T02:18:53.295Z,95.82
2022-08-05T02:20:27.888Z,96.21
2022-08-05T02:22:08.968Z,97.78
2022-08-05T02:23:53.399Z,98.06
2022-08-05T02:25:33.369Z,97.88
2022-08-05T02:27:09.145Z,97.56
2022-08-05T02:28:46.259Z,97.50
2022-08-05T02:30:20.469Z,97.51
2022-08-05T02:31:57.116Z,97.53
2022-08-05T02:33:36.184Z,97.49
2022-08-05T02:35:19.151Z,97.06
2022-08-05T02:37:04.354Z,97.40
2022-08-05T02:38:37.757Z,96.84
2022-08-05T02:40:10.549Z,96.61
2022-08-05T02:42:00.429Z,96.15
2022-08-05T02:43:34.542Z,96.40
2022-08-05T02:45:28.999Z,94.70
2022-08-05T02:47:22.444Z,94.04
2022-08-05T02:48:55.804Z,92.99
2022-08-05T02:50:29.134Z,92.79
2022-08-05T02:52:03.807Z,92.35
2022-08-05T02:53:40.493Z,91.40
2022-08-05T02:55:13.484Z,90.08
2022-08-05T02:56:46.056Z,88.85
2022-08-05T02:58:20.697Z,87.10
2022-08-05T02:59:54.184Z,87.17
2022-08-05T03:01:29.376Z,87.57
2022-08-05T03:03:02.221Z,87.34
2022-08-05T03:04:40.595Z,86.37
2022-08-05T03:06:56.336Z,86.91
2022-08-05T03:08:08.632Z,86.05
2022-08-05T03:09:51.599Z,85.47
2022-08-05T03:11:56.678Z,85.59
2022-08-05T03:13:18.029Z,85.01
2022-08-05T03:14:49.710Z,84.56
2022-08-05T03:16:21.971Z,85.53
2022-08-05T03:17:57.876Z,85.14
2022-08-05T03:19:33.884Z,84.22
2022-08-05T03:21:07.745Z,83.93
2022-08-05T03:22:46.789Z,83.72
2022-08-05T03:24:29.598Z,83.11
2022-08-05T03:26:30.133Z,84.24
2022-08-05T03:27:59.595Z,84.34
2022-08-05T03:29:45.959Z,84.19
2022-08-05T03:31:55.813Z,83.34
2022-08-05T03:33:18.971Z,83.39
2022-08-05T03:34:52.321Z,83.13
2022-08-05T03:36:30.514Z,82.79
2022-08-05T03:38:02.761Z,82.93
2022-08-05T03:39:38.303Z,83.34
2022-08-05T03:41:26.188Z,83.28
2022-08-05T03:43:58.663Z,82.94
2022-08-05T03:44:57.049Z,83.04
2022-08-05T03:46:30.053Z,82.37
2022-08-05T03:48:05.132Z,81.31
2022-08-05T03:49:51.636Z,80.62
2022-08-05T03:52:50.546Z,81.27
2022-08-05T03:55:53.009Z,81.64
2022-08-05T03:56:05.809Z,81.39
2022-08-05T03:57:28.993Z,81.13
2022-08-05T03:59:20.458Z,81.17
2022-08-05T04:00:55.620Z,81.86
2022-08-05T04:02:38.289Z,82.41
2022-08-05T04:04:21.203Z,82.28
2022-08-05T04:05:55.169Z,82.57
2022-08-05T04:07:30.521Z,82.89
2022-08-05T04:09:08.712Z,82.91
2022-08-05T04:10:41.545Z,82.42
2022-08-05T04:12:24.746Z,81.62
2022-08-05T04:13:56.717Z,80.89
2022-08-05T04:15:35.906Z,81.82
2022-08-05T04:17:09.297Z,82.74
2022-08-05T04:18:45.601Z,83.28
2022-08-05T04:20:25.511Z,83.66
2022-08-05T04:22:08.964Z,83.34
2022-08-05T04:23:57.137Z,82.91
2022-08-05T04:25:57.928Z,82.39
2022-08-05T04:27:33.209Z,81.76
2022-08-05T04:29:14.383Z,81.51
2022-08-05T04:30:46.630Z,81.06
2022-08-05T04:32:29.662Z,81.73
2022-08-05T04:34:31.139Z,82.35
2022-08-05T04:36:10.860Z,82.25
2022-08-05T04:38:01.536Z,82.67
2022-08-05T04:39:38.012Z,82.85
2022-08-05T04:41:11.126Z,82.62
2022-08-05T04:42:42.821Z,82.57
2022-08-05T04:44:29.002Z,82.88
2022-08-05T04:46:04.027Z,82.97
2022-08-05T04:47:38.731Z,83.35
2022-08-05T04:49:18.871Z,83.50
2022-08-05T04:51:03.513Z,82.75
2022-08-05T04:52:42.756Z,81.93
2022-08-05T04:54:19.735Z,82.11
2022-08-05T04:56:32.810Z,82.08
2022-08-05T04:57:47.755Z,82.35
2022-08-05T04:59:23.913Z,82.12
2022-08-05T05:01:11.054Z,81.53
2022-08-05T05:02:43.502Z,81.44
2022-08-05T05:04:15.368Z,80.70
2022-08-05T05:06:36.165Z,80.46
2022-08-05T05:07:39.210Z,80.11
2022-08-05T05:09:25.857Z,78.94
2022-08-05T05:10:57.833Z,79.01
2022-08-05T05:12:29.719Z,78.71
2022-08-05T05:14:03.311Z,79.04
2022-08-05T05:15:56.141Z,78.64
2022-08-05T05:17:56.949Z,78.96
2022-08-05T05:19:19.176Z,79.33
2022-08-05T05:20:55.199Z,79.23
2022-08-05T05:22:27.057Z,78.67
2022-08-05T05:24:03.951Z,78.85
2022-08-05T05:25:43.424Z,78.70
2022-08-05T05:27:19.523Z,77.85
2022-08-05T05:28:52.794Z,78.75
2022-08-05T05:30:31.108Z,78.68
2022-08-05T05:32:06.291Z,78.44
2022-08-05T05:33:59.222Z,79.17
2022-08-05T05:35:37.683Z,79.68
2022-08-05T05:37:09.956Z,79.80
2022-08-05T05:38:41.608Z,79.78
2022-08-05T05:40:15.513Z,80.02
2022-08-05T05:41:54.470Z,80.37
2022-08-05T05:43:54.290Z,81.13
2022-08-05T05:45:19.468Z,81.17
2022-08-05T05:46:51.963Z,81.49
2022-08-05T05:48:27.655Z,81.92
2022-08-05T05:50:01.550Z,81.52
2022-08-05T05:51:50.403Z,81.72
2022-08-05T05:53:23.060Z,82.30
2022-08-05T05:54:54.822Z,82.66
2022-08-05T05:56:32.217Z,82.63
2022-08-05T05:58:07.062Z,82.79
2022-08-05T05:59:40.909Z,82.45
2022-08-05T06:01:15.511Z,82.24
2022-08-05T06:02:50.529Z,81.95
2022-08-05T06:04:22.394Z,81.71
2022-08-05T06:05:55.673Z,80.82
2022-08-05T06:07:41.710Z,80.38
2022-08-05T06:09:17.103Z,79.88
2022-08-05T06:10:52.810Z,79.54
2022-08-05T06:12:27.162Z,79.34
2022-08-05T06:14:01.306Z,79.18
2022-08-05T06:16:30.748Z,79.11
2022-08-05T06:17:30.917Z,79.15
2022-08-05T06:19:05.954Z,79.37
2022-08-05T06:20:39.305Z,79.13
2022-08-05T06:22:11.103Z,79.09
2022-08-05T06:23:43.609Z,78.79
2022-08-05T06:25:24.551Z,78.23
2022-08-05T06:26:56.603Z,77.65
2022-08-05T06:28:28.877Z,77.99
2022-08-05T06:30:04.179Z,77.98
2022-08-05T06:31:39.521Z,77.97
2022-08-05T06:33:19.049Z,77.73
2022-08-05T06:34:53.429Z,77.64
2022-08-05T06:36:26.141Z,77.91
2022-08-05T06:37:59.535Z,78.40
2022-08-05T06:39:34.004Z,78.21
2022-08-05T06:41:07.814Z,78.57
2022-08-05T06:42:40.387Z,78.58
2022-08-05T06:44:13.169Z,77.82
2022-08-05T06:46:03.842Z,78.17
2022-08-05T06:48:36.459Z,78.36
2022-08-05T06:50:00.282Z,77.98
2022-08-05T06:51:23.805Z,77.28
2022-08-05T06:53:11.172Z,77.07
2022-08-05T06:54:43.570Z,76.41
2022-08-05T06:56:26.377Z,75.97
2022-08-05T06:58:11.557Z,75.83
2022-08-05T06:59:55.139Z,75.54
2022-08-05T07:01:32.765Z,75.59
2022-08-05T07:03:04.670Z,75.82
2022-08-05T07:04:41.490Z,75.52
2022-08-05T07:06:15.151Z,75.46
2022-08-05T07:07:48.934Z,74.68
2022-08-05T07:09:20.806Z,74.65
2022-08-05T07:10:56.773Z,74.72
2022-08-05T07:12:49.073Z,75.02
2022-08-05T07:14:39.569Z,74.26
2022-08-05T07:17:59.178Z,73.63
2022-08-05T07:18:28.930Z,73.25
2022-08-05T07:20:32.822Z,73.25
2022-08-05T07:22:00.148Z,72.87
2022-08-05T07:23:33.138Z,72.96
2022-08-05T07:25:23.620Z,72.82
2022-08-05T07:26:57.866Z,72.37
2022-08-05T07:28:31.106Z,72.06
2022-08-05T07:30:24.083Z,71.97
2022-08-05T07:31:55.670Z,71.84
2022-08-05T07:33:36.855Z,71.69
2022-08-05T07:36:05.158Z,71.41
2022-08-05T07:37:01.714Z,70.46
2022-08-05T07:38:43.217Z,70.46
2022-08-05T07:40:31.914Z,70.83
2022-08-05T07:42:13.149Z,71.11
2022-08-05T07:43:47.019Z,71.20
2022-08-05T07:45:19.045Z,71.60
2022-08-05T07:47:10.762Z,72.05
2022-08-05T07:49:03.821Z,71.83
2022-08-05T07:50:37.400Z,71.71
2022-08-05T07:52:10.789Z,71.87
2022-08-05T07:53:50.021Z,71.75
2022-08-05T07:56:05.795Z,71.23
2022-08-05T07:57:41.897Z,71.73
2022-08-05T07:59:08.555Z,71.62
2022-08-05T08:00:40.422Z,71.37
2022-08-05T08:02:15.916Z,71.41
2022-08-05T08:03:51.379Z,71.00
2022-08-05T08:05:23.212Z,70.86
2022-08-05T08:07:00.866Z,71.04
2022-08-05T08:08:37.282Z,70.89
2022-08-05T08:10:09.139Z,70.37
2022-08-05T08:11:40.808Z,71.13
2022-08-05T08:13:22.166Z,71.27
2022-08-05T08:15:02.752Z,71.72
2022-08-05T08:16:50.271Z,71.71
2022-08-05T08:18:23.240Z,71.73
2022-08-05T08:20:21.242Z,71.57
2022-08-05T08:21:48.168Z,70.88
2022-08-05T08:24:03.315Z,70.66
2022-08-05T08:25:15.853Z,70.23
2022-08-05T08:26:50.702Z,69.80
2022-08-05T08:28:36.445Z,69.74
2022-08-05T08:30:30.074Z,68.95
2022-08-05T08:32:03.962Z,68.83
2022-08-05T08:33:38.257Z,68.41
2022-08-05T08:35:13.730Z,68.87
2022-08-05T08:36:48.765Z,68.55
2022-08-05T08:38:35.486Z,68.36
2022-08-05T08:40:08.618Z,68.30
2022-08-05T08:41:51.648Z,67.45
2022-08-05T08:45:20.396Z,67.42
2022-08-05T08:45:27.041Z,67.11
2022-08-05T08:47:03.067Z,66.66
2022-08-05T08:49:03.089Z,66.15
2022-08-05T08:50:52.563Z,66.48
2022-08-05T08:52:24.957Z,65.66
2022-08-05T08:53:57.079Z,65.94
2022-08-05T08:56:01.608Z,66.00
2022-08-05T08:57:22.686Z,64.62
2022-08-05T08:58:55.157Z,64.78
2022-08-05T09:00:30.410Z,64.72
2022-08-05T09:02:08.425Z,64.70
2022-08-05T09:03:45.242Z,64.48
2022-08-05T09:05:18.414Z,64.52
2022-08-05T09:07:10.683Z,64.86
2022-08-05T09:08:51.234Z,64.62
2022-08-05T09:10:27.827Z,64.38
2022-08-05T09:12:13.374Z,64.76
2022-08-05T09:14:10.065Z,64.46
2022-08-05T09:15:46.688Z,64.43
2022-08-05T09:17:40.776Z,63.22
2022-08-05T09:19:12.050Z,62.78
2022-08-05T09:20:47.072Z,62.46
2022-08-05T09:22:30.812Z,62.85
2022-08-05T09:24:04.942Z,63.19
2022-08-05T09:26:00.002Z,62.89
2022-08-05T09:28:05.788Z,63.03
2022-08-05T09:29:47.632Z,63.39
2022-08-05T09:31:44.192Z,63.04
2022-08-05T09:33:15.339Z,63.00
2022-08-05T09:34:50.477Z,62.14
2022-08-05T09:36:27.769Z,62.01
2022-08-05T09:38:12.959Z,61.43
2022-08-05T09:39:55.893Z,61.58
2022-08-05T09:41:28.684Z,62.21
2022-08-05T09:43:08.590Z,61.87
2022-08-05T09:44:43.058Z,61.72
2022-08-05T09:46:27.401Z,62.17
2022-08-05T09:47:59.842Z,62.16
2022-08-05T09:49:54.561Z,61.97
2022-08-05T09:51:32.729Z,61.97
2022-08-05T09:53:13.038Z,62.00
2022-08-05T09:54:58.698Z,62.06
2022-08-05T09:56:35.725Z,62.22
2022-08-05T09:58:10.847Z,62.44
2022-08-05T09:59:47.686Z,62.66
2022-08-05T10:01:31.636Z,62.71
2022-08-05T10:03:09.895Z,62.64
2022-08-05T10:04:43.876Z,62.38
2022-08-05T10:06:19.693Z,62.43
2022-08-05T10:08:34.719Z,62.68
2022-08-05T10:10:14.108Z,63.34
2022-08-05T10:11:47.262Z,63.36
2022-08-05T10:13:31.698Z,61.90
2022-08-05T10:15:21.751Z,62.21
2022-08-05T10:16:57.555Z,62.77
2022-08-05T10:18:31.994Z,62.23
2022-08-05T10:20:10.890Z,62.57
2022-08-05T10:21:45.545Z,62.32
2022-08-05T10:23:34.717Z,61.86
2022-08-05T10:25:14.225Z,60.62
2022-08-05T10:26:51.996Z,61.00
2022-08-05T10:28:29.109Z,60.22
2022-08-05T10:30:06.913Z,60.71
2022-08-05T10:32:52.564Z,61.04
2022-08-05T10:33:45.503Z,61.70
2022-08-05T10:35:33.863Z,61.52
2022-08-05T10:37:13.147Z,61.63
2022-08-05T10:38:48.276Z,60.67
2022-08-05T10:40:29.509Z,59.35
2022-08-05T10:42:07.821Z,59.60
2022-08-05T10:43:50.830Z,59.77
2022-08-05T10:45:40.164Z,59.69
2022-08-05T10:47:26.949Z,58.75
2022-08-05T10:49:10.000Z,58.46
2022-08-05T10:50:57.812Z,57.90
2022-08-05T10:52:49.600Z,57.30
2022-08-05T10:54:28.152Z,56.06
2022-08-05T10:56:21.038Z,56.14
2022-08-05T10:58:11.371Z,55.99
2022-08-05T11:00:01.819Z,56.00
2022-08-05T11:01:55.145Z,54.89
2022-08-05T11:03:29.232Z,54.70
2022-08-05T11:05:05.136Z,54.01
2022-08-05T11:07:04.840Z,52.59
2022-08-05T11:08:39.215Z,52.40
2022-08-05T11:10:22.559Z,52.74
2022-08-05T11:12:00.919Z,52.47
2022-08-05T11:13:58.116Z,51.15
2022-08-05T11:16:00.011Z,52.02
2022-08-05T11:17:59.193Z,51.98
2022-08-05T11:20:10.433Z,51.34
2022-08-05T11:21:32.316Z,51.03
2022-08-05T11:24:05.601Z,51.26
2022-08-05T11:26:08.462Z,51.22
2022-08-05T11:27:51.014Z,50.76
2022-08-05T11:29:42.687Z,50.12
2022-08-05T11:31:57.537Z,49.63
2022-08-05T11:33:34.591Z,49.63
2022-08-05T11:36:07.633Z,49.14
2022-08-05T11:38:28.305Z,48.21
2022-08-05T11:40:03.705Z,48.15
2022-08-05T11:42:01.070Z,48.15
2022-08-05T11:44:00.786Z,47.84
2022-08-05T11:45:23.217Z,48.11
2022-08-05T11:47:19.942Z,47.60
2022-08-05T11:48:54.132Z,47.84
2022-08-05T11:50:26.249Z,48.29
2022-08-05T11:51:58.093Z,49.81
2022-08-05T11:53:33.743Z,50.81
2022-08-05T11:55:13.278Z,50.95
2022-08-05T11:56:50.287Z,50.91
2022-08-05T11:58:34.378Z,49.39
2022-08-05T12:00:25.866Z,48.25
2022-08-05T12:02:01.789Z,48.86
2022-08-05T12:03:41.911Z,48.27
2022-08-05T12:05:28.826Z,47.32
2022-08-05T12:07:09.218Z,48.28
2022-08-05T12:08:50.052Z,48.61
2022-08-05T12:10:38.453Z,48.33
2022-08-05T12:12:22.565Z,47.65
2022-08-05T12:14:04.260Z,47.73
2022-08-05T12:15:38.700Z,47.55
2022-08-05T12:18:02.693Z,47.68
2022-08-05T12:19:08.299Z,47.56
2022-08-05T12:20:40.689Z,47.31
2022-08-05T12:22:13.772Z,47.33
2022-08-05T12:23:53.092Z,46.95
2022-08-05T12:25:28.420Z,46.57
2022-08-05T12:27:09.422Z,46.10
2022-08-05T12:28:44.034Z,46.21
2022-08-05T12:30:22.826Z,46.76
2022-08-05T12:32:09.709Z,47.15
2022-08-05T12:33:41.925Z,46.67
2022-08-05T12:35:16.803Z,46.42
2022-08-05T12:36:55.381Z,46.10
2022-08-05T12:38:30.225Z,46.39
2022-08-05T12:40:10.662Z,46.02
2022-08-05T12:41:43.538Z,47.25
2022-08-05T12:43:20.939Z,47.28
2022-08-05T12:45:01.180Z,47.04
2022-08-05T12:46:36.592Z,46.68
2022-08-05T12:48:32.724Z,45.53
2022-08-05T12:50:13.511Z,44.70
2022-08-05T12:52:13.050Z,43.92
2022-08-05T12:53:42.886Z,42.72
2022-08-05T12:55:23.517Z,41.97
2022-08-05T12:56:58.344Z,42.14
2022-08-05T12:58:48.634Z,42.44
2022-08-05T13:02:02.674Z,42.71
2022-08-05T13:02:21.101Z,41.84
2022-08-05T13:04:03.195Z,42.00
2022-08-05T13:05:39.413Z,41.24
2022-08-05T13:07:17.287Z,41.53
2022-08-05T13:08:51.545Z,43.22
2022-08-05T13:10:25.175Z,44.31
2022-08-05T13:12:03.834Z,44.27
2022-08-05T13:14:06.342Z,44.81
2022-08-05T13:15:41.941Z,44.75
2022-08-05T13:17:31.977Z,44.66
2022-08-05T13:19:15.987Z,44.73
2022-08-05T13:20:49.287Z,45.17
2022-08-05T13:22:28.025Z,45.15
2022-08-05T13:24:01.765Z,45.47
2022-08-05T13:25:51.982Z,60.10
2022-08-05T13:27:38.403Z,58.61
2022-08-05T13:29:11.020Z,61.55
2022-08-05T13:30:51.151Z,59.69
2022-08-05T13:32:33.005Z,58.10
2022-08-05T13:34:25.452Z,59.07
2022-08-05T13:35:57.585Z,57.67
2022-08-05T13:37:34.449Z,57.35
2022-08-05T13:39:08.596Z,57.30
2022-08-05T13:40:59.876Z,55.45
2022-08-05T13:42:31.923Z,53.28
2022-08-05T13:44:04.167Z,54.53
2022-08-05T13:45:38.688Z,54.42
2022-08-05T13:47:35.649Z,53.45
2022-08-05T13:49:10.443Z,52.66
2022-08-05T13:50:43.826Z,50.67
2022-08-05T13:52:18.238Z,51.15
2022-08-05T13:53:50.175Z,51.57
2022-08-05T13:55:41.261Z,50.71
2022-08-05T13:57:16.293Z,51.54
2022-08-05T13:58:53.155Z,49.13
2022-08-05T14:00:27.156Z,46.60
2022-08-05T14:02:00.806Z,46.46
2022-08-05T14:03:32.869Z,46.12
2022-08-05T14:05:11.708Z,46.48
2022-08-05T14:06:47.713Z,47.20
2022-08-05T14:08:27.732Z,46.76
2022-08-05T14:10:00.796Z,46.78
2022-08-05T14:11:32.661Z,46.63
2022-08-05T14:13:25.429Z,46.77
2022-08-05T14:14:58.348Z,45.40
2022-08-05T14:16:30.150Z,45.00
2022-08-05T14:18:02.912Z,44.88
2022-08-05T14:19:54.214Z,45.71
2022-08-05T14:22:10.245Z,46.10
2022-08-05T14:23:25.015Z,45.82
2022-08-05T14:24:59.449Z,46.40
2022-08-05T14:26:35.777Z,46.26
2022-08-05T14:28:15.959Z,45.95
2022-08-05T14:29:59.233Z,45.29
2022-08-05T14:32:03.673Z,45.15
2022-08-05T14:33:23.880Z,44.89
2022-08-05T14:34:56.861Z,42.19
2022-08-05T14:36:31.038Z,41.74
2022-08-05T14:38:03.211Z,41.24
2022-08-05T14:39:49.277Z,42.15
2022-08-05T14:41:32.393Z,42.70
2022-08-05T14:43:04.566Z,42.32
2022-08-05T14:44:42.997Z,41.85
2022-08-05T14:46:14.881Z,40.34
2022-08-05T14:48:03.475Z,41.44
2022-08-05T14:49:59.083Z,41.23
2022-08-05T14:51:42.635Z,41.25
2022-08-05T14:53:15.647Z,41.42
2022-08-05T14:54:52.840Z,41.10
2022-08-05T14:56:25.249Z,40.58
2022-08-05T14:57:57.753Z,40.73
2022-08-05T14:59:35.344Z,40.64
2022-08-05T15:01:16.093Z,40.13
2022-08-05T15:02:49.447Z,40.03
2022-08-05T15:04:22.890Z,39.98
2022-08-05T15:06:07.695Z,39.36
2022-08-05T15:08:06.188Z,39.30
2022-08-05T15:09:53.884Z,38.40
2022-08-05T15:11:51.681Z,38.01
2022-08-05T15:13:18.205Z,37.93
2022-08-05T15:14:50.754Z,38.31
2022-08-05T15:16:22.561Z,37.70
2022-08-05T15:17:54.541Z,36.37
2022-08-05T15:19:26.515Z,36.94
2022-08-05T15:20:58.234Z,35.99
2022-08-05T15:22:40.124Z,36.70
2022-08-05T15:24:17.959Z,37.42
2022-08-05T15:25:55.887Z,37.35
2022-08-05T15:27:35.894Z,37.58
2022-08-05T15:29:07.932Z,37.40
2022-08-05T15:30:39.834Z,36.30
2022-08-05T15:32:11.578Z,35.88
2022-08-05T15:34:19.025Z,35.97
2022-08-05T15:35:36.001Z,36.64
2022-08-05T15:37:14.750Z,35.04
2022-08-05T15:38:47.969Z,35.30
2022-08-05T15:41:03.884Z,34.63
2022-08-05T15:42:49.812Z,34.60
2022-08-05T15:44:05.559Z,33.24
2022-08-05T15:45:38.327Z,33.12
2022-08-05T15:47:11.635Z,33.72
2022-08-05T15:48:52.821Z,33.04
2022-08-05T15:50:32.420Z,32.66
2022-08-05T15:52:13.177Z,32.57
2022-08-05T15:53:57.030Z,32.08
2022-08-05T15:56:03.043Z,32.08
2022-08-05T15:57:25.491Z,31.31
2022-08-05T15:59:04.777Z,31.05
2022-08-05T16:00:50.278Z,31.20
2022-08-05T16:02:28.803Z,30.34
2022-08-05T16:04:00.893Z,30.81
2022-08-05T16:05:32.720Z,30.84
2022-08-05T16:07:04.597Z,31.87
2022-08-05T16:08:37.689Z,32.12
2022-08-05T16:10:11.652Z,31.82
2022-08-05T16:11:49.685Z,31.65
2022-08-05T16:13:32.041Z,32.37
2022-08-05T16:15:07.062Z,31.93
2022-08-05T16:16:41.347Z,32.23
2022-08-05T16:18:13.108Z,32.02
2022-08-05T16:20:05.323Z,32.04
2022-08-05T16:21:58.645Z,32.19
2022-08-05T16:23:32.896Z,32.20
2022-08-05T16:25:21.408Z,31.51
2022-08-05T16:26:56.338Z,31.30
2022-08-05T16:28:28.229Z,30.99
2022-08-05T16:30:00.199Z,30.62
2022-08-05T16:31:56.715Z,31.19
2022-08-05T16:33:23.898Z,31.36
2022-08-05T16:34:59.081Z,31.41
2022-08-05T16:36:30.945Z,31.69
2022-08-05T16:38:24.298Z,31.67
2022-08-05T16:40:04.688Z,31.34
2022-08-05T16:42:14.561Z,31.55
2022-08-05T16:43:35.269Z,31.59
2022-08-05T16:46:04.608Z,31.85
2022-08-05T16:46:59.935Z,31.99
2022-08-05T16:48:33.394Z,31.33
2022-08-05T16:50:09.947Z,31.94
2022-08-05T16:51:51.334Z,31.40
2022-08-05T16:53:32.171Z,31.69
2022-08-05T16:55:05.411Z,31.21
2022-08-05T16:56:38.120Z,31.24
2022-08-05T16:58:13.571Z,30.97
2022-08-05T17:00:01.393Z,31.56
2022-08-05T17:01:54.588Z,31.52
2022-08-05T17:03:26.608Z,31.74
2022-08-05T17:04:59.658Z,31.58
2022-08-05T17:06:31.830Z,31.22
2022-08-05T17:08:03.886Z,31.53
2022-08-05T17:09:57.699Z,31.52
2022-08-05T17:11:27.686Z,31.27
2022-08-05T17:12:59.383Z,31.23
2022-08-05T17:14:34.450Z,31.52
2022-08-05T17:16:32.714Z,31.44
2022-08-05T17:18:02.790Z,30.90
2022-08-05T17:19:34.861Z,31.07
2022-08-05T17:21:06.553Z,31.18
2022-08-05T17:22:38.291Z,31.20
2022-08-05T17:24:30.196Z,31.44
2022-08-05T17:26:04.443Z,31.42
2022-08-05T17:27:36.268Z,31.22
2022-08-05T17:29:10.081Z,31.46
2022-08-05T17:30:51.792Z,31.73
2022-08-05T17:32:25.351Z,31.50
2022-08-05T17:33:58.683Z,32.04
2022-08-05T17:35:32.575Z,31.71
2022-08-05T17:37:40.486Z,31.90
2022-08-05T17:39:23.961Z,32.23
2022-08-05T17:41:01.554Z,32.42
2022-08-05T17:42:34.134Z,32.48
2022-08-05T17:44:13.640Z,32.71
2022-08-05T17:45:48.383Z,32.90
2022-08-05T17:47:25.865Z,32.92
2022-08-05T17:48:58.103Z,32.81
2022-08-05T17:50:30.834Z,32.92
2022-08-05T17:52:02.804Z,32.25
2022-08-05T17:53:35.916Z,32.47
2022-08-05T17:55:10.304Z,32.76
2022-08-05T17:56:42.731Z,32.56
2022-08-05T17:58:16.733Z,33.00
2022-08-05T17:59:53.983Z,32.98
2022-08-05T18:01:49.598Z,33.09
2022-08-05T18:03:56.538Z,33.42
2022-08-05T18:05:18.123Z,34.12
2022-08-05T18:06:50.113Z,33.87
2022-08-05T18:08:21.961Z,33.95
2022-08-05T18:10:00.465Z,34.05
2022-08-05T18:11:34.021Z,34.15
2022-08-05T18:13:07.695Z,34.50
2022-08-05T18:14:44.313Z,34.35
2022-08-05T18:16:20.447Z,34.51
2022-08-05T18:17:58.712Z,34.37
2022-08-05T18:19:35.979Z,34.26
2022-08-05T18:21:13.109Z,34.52
2022-08-05T18:22:54.478Z,34.70
2022-08-05T18:24:29.021Z,35.08
2022-08-05T18:26:01.133Z,35.17
2022-08-05T18:27:33.987Z,35.42
2022-08-05T18:29:10.390Z,35.20
2022-08-05T18:30:42.318Z,35.50
2022-08-05T18:32:14.175Z,35.64
2022-08-05T18:33:49.710Z,35.67
2022-08-05T18:35:49.366Z,35.90
2022-08-05T18:37:16.960Z,36.29
2022-08-05T18:39:09.732Z,36.36
2022-08-05T18:41:55.605Z,36.83
2022-08-05T18:42:46.450Z,36.89
2022-08-05T18:44:33.304Z,37.16
2022-08-05T18:46:07.322Z,37.17
2022-08-05T18:47:41.559Z,37.20
2022-08-05T18:49:57.398Z,37.30
2022-08-05T18:52:05.558Z,37.48
2022-08-05T18:53:45.737Z,37.62
2022-08-05T18:55:22.224Z,37.73
2022-08-05T18:56:54.135Z,37.72
2022-08-05T18:58:28.688Z,38.02
2022-08-05T19:00:04.058Z,37.95
2022-08-05T19:01:47.950Z,38.01
2022-08-05T19:03:52.868Z,37.68
2022-08-05T19:06:12.873Z,37.96
2022-08-05T19:07:16.929Z,38.00
2022-08-05T19:08:48.681Z,38.24
2022-08-05T19:10:28.190Z,38.38
2022-08-05T19:12:01.628Z,38.35
2022-08-05T19:13:36.005Z,38.51
2022-08-05T19:15:56.594Z,38.76
2022-08-05T19:17:02.590Z,38.90
2022-08-05T19:18:38.586Z,38.90
2022-08-05T19:20:12.139Z,39.10
2022-08-05T19:21:43.897Z,39.27
2022-08-05T19:24:04.286Z,39.43
2022-08-05T19:25:09.300Z,39.63
2022-08-05T19:26:43.747Z,39.65
2022-08-05T19:28:27.538Z,39.72
2022-08-05T19:29:59.371Z,39.80
2022-08-05T19:31:33.739Z,39.83
2022-08-05T19:33:17.146Z,39.81
2022-08-05T19:35:09.255Z,39.80
2022-08-05T19:36:44.110Z,40.08
2022-08-05T19:38:24.453Z,40.16
2022-08-05T19:39:58.790Z,40.31
2022-08-05T19:41:58.149Z,40.54
2022-08-05T19:44:03.911Z,40.47
2022-08-05T19:45:14.752Z,40.58
2022-08-05T19:46:47.005Z,40.89
2022-08-05T19:48:18.752Z,41.14
2022-08-05T19:49:51.492Z,41.45
2022-08-05T19:52:04.552Z,41.38
2022-08-05T19:54:05.320Z,41.38
2022-08-05T19:56:15.521Z,41.88
2022-08-05T19:57:09.445Z,42.07
2022-08-05T19:58:54.216Z,42.22
2022-08-05T20:00:26.922Z,42.44
2022-08-05T20:01:58.901Z,42.72
2022-08-05T20:03:38.827Z,43.28
2022-08-05T20:05:16.460Z,43.38
2022-08-05T20:06:56.568Z,43.27
2022-08-05T20:08:31.202Z,43.19
2022-08-05T20:10:08.266Z,43.65
2022-08-05T20:11:48.178Z,43.68
2022-08-05T20:13:30.033Z,43.91
2022-08-05T20:15:12.272Z,43.97
2022-08-05T20:16:45.563Z,44.32
2022-08-05T20:18:33.156Z,44.56
2022-08-05T20:20:09.505Z,44.75
2022-08-05T20:21:43.439Z,45.01
2022-08-05T20:23:16.732Z,45.22
2022-08-05T20:24:53.113Z,45.20
2022-08-05T20:26:41.561Z,45.38
2022-08-05T20:28:15.640Z,45.59
2022-08-05T20:30:10.860Z,45.83
2022-08-05T20:31:53.540Z,45.97
2022-08-05T20:33:27.294Z,46.16
2022-08-05T20:35:03.128Z,46.05
2022-08-05T20:36:34.919Z,46.15
2022-08-05T20:38:11.552Z,46.49
2022-08-05T20:40:01.433Z,46.80
2022-08-05T20:41:43.129Z,47.00
2022-08-05T20:43:16.697Z,47.66
2022-08-05T20:45:16.847Z,48.20
2022-08-05T20:46:59.031Z,48.30
2022-08-05T20:48:30.980Z,48.60
2022-08-05T20:50:05.337Z,48.55
2022-08-05T20:51:42.055Z,48.80
2022-08-05T20:53:15.978Z,49.46
2022-08-05T20:55:56.503Z,49.31
2022-08-05T20:57:42.213Z,49.51
2022-08-05T20:59:19.381Z,49.71
2022-08-05T21:00:59.116Z,49.89
2022-08-05T21:02:39.593Z,49.93
2022-08-05T21:04:20.521Z,50.25
2022-08-05T21:05:59.273Z,50.50
2022-08-05T21:07:45.652Z,50.64
2022-08-05T21:09:29.695Z,50.41
2022-08-05T21:11:09.013Z,50.48
2022-08-05T21:12:41.094Z,50.51
2022-08-05T21:14:35.068Z,50.47
2022-08-05T21:16:08.234Z,50.42
2022-08-05T21:17:39.942Z,50.65
2022-08-05T21:19:13.586Z,50.60
2022-08-05T21:20:47.043Z,50.54
2022-08-05T21:22:33.210Z,50.72
2022-08-05T21:24:09.845Z,50.88
2022-08-05T21:25:45.080Z,51.24
2022-08-05T21:27:25.225Z,51.50
2022-08-05T21:29:03.916Z,51.79
2022-08-05T21:30:37.062Z,51.96
2022-08-05T21:32:09.014Z,51.87